Time;durP1;ratioP1;P1;durP2;ratioP2;P2;SDS_P1;SDS_P2;PMS_P1;PMS_P2;Temp;Humidity;BMP_temperature;BMP_pressure;BME280_temperature;BME280_humidity;BME280_pressure;Samples;Min_cycle;Max_cycle;Signal;HPM_P1;HPM_P2
2022/12/31 00:00:39;;;;;;;;;;;11.40;99.90;;;;;;5071081;28;20389;-73
2022/12/31 00:03:10;;;;;;;;;;;11.30;99.90;;;;;;5072751;28;19951;-73
2022/12/31 00:05:35;;;;;;;;;;;11.30;99.90;;;;;;5073771;28;19913;-74
2022/12/31 00:08:01;;;;;;;;;;;11.40;99.90;;;;;;5073884;28;20287;-74
2022/12/31 00:10:27;;;;;;;;;;;11.60;99.90;;;;;;5073731;28;19947;-73
2022/12/31 00:12:53;;;;;;;;;;;11.50;99.90;;;;;;5074021;28;19963;-72
2022/12/31 00:15:18;;;;;;;;;;;11.50;99.90;;;;;;5074154;28;20343;-73
2022/12/31 00:17:44;;;;;;;;;;;11.40;99.90;;;;;;5075028;28;20274;-71
2022/12/31 00:20:10;;;;;;;;;;;11.40;99.90;;;;;;5074864;28;19912;-72
2022/12/31 00:22:36;;;;;;;;;;;11.60;99.90;;;;;;5073292;28;19940;-74
2022/12/31 00:25:05;;;;;;;;;;;11.50;99.90;;;;;;5071860;28;20009;-73
2022/12/31 00:27:31;;;;;;;;;;;11.40;99.90;;;;;;5068385;28;20368;-73
2022/12/31 00:29:56;;;;;;;;;;;11.30;99.90;;;;;;5071951;28;19935;-72
2022/12/31 00:32:23;;;;;;;;;;;11.40;99.90;;;;;;5073377;28;20054;-73
2022/12/31 00:34:49;;;;;;;;;;;11.40;99.90;;;;;;5072706;28;20306;-73
2022/12/31 00:37:15;;;;;;;;;;;11.50;99.90;;;;;;5071181;28;19912;-73
2022/12/31 00:39:43;;;;;;;;;;;11.50;99.90;;;;;;5072971;28;20371;-73
2022/12/31 00:42:10;;;;;;;;;;;11.40;99.90;;;;;;5072621;28;19919;-73
2022/12/31 00:44:36;;;;;;;;;;;11.40;99.90;;;;;;5074372;28;19920;-73
2022/12/31 00:47:02;;;;;;;;;;;11.30;99.90;;;;;;5055499;28;19912;-73
2022/12/31 00:49:29;;;;;;;;;;;11.30;99.90;;;;;;5065544;28;20412;-73
2022/12/31 00:51:55;;;;;;;;;;;11.40;99.90;;;;;;5072014;28;19913;-72
2022/12/31 00:54:21;;;;;;;;;;;11.30;99.90;;;;;;5073747;28;20011;-74
2022/12/31 00:56:47;;;;;;;;;;;11.20;99.90;;;;;;5072216;28;19919;-73
2022/12/31 00:59:13;;;;;;;;;;;11.20;99.90;;;;;;5071845;28;19912;-73
2022/12/31 01:01:39;;;;;;;;;;;11.20;99.90;;;;;;5072448;28;19912;-74
2022/12/31 01:04:06;;;;;;;;;;;11.10;99.90;;;;;;5063660;28;20382;-74
2022/12/31 01:06:32;;;;;;;;;;;11.20;99.90;;;;;;5075481;28;19919;-74
2022/12/31 01:09:00;;;;;;;;;;;11.20;99.90;;;;;;5056876;28;20380;-74
2022/12/31 01:11:28;;;;;;;;;;;11.20;99.90;;;;;;5072787;28;19928;-73
2022/12/31 01:13:55;;;;;;;;;;;11.20;99.90;;;;;;5051750;28;20012;-65
2022/12/31 01:16:22;;;;;;;;;;;11.20;99.90;;;;;;5067256;28;20341;-74
2022/12/31 01:18:48;;;;;;;;;;;11.20;99.90;;;;;;5073852;28;19927;-74
2022/12/31 01:21:14;;;;;;;;;;;11.30;99.90;;;;;;5072508;28;19962;-74
2022/12/31 01:23:40;;;;;;;;;;;11.20;99.90;;;;;;5072994;28;19970;-74
2022/12/31 01:26:07;;;;;;;;;;;11.20;99.90;;;;;;5072225;28;20384;-74
2022/12/31 01:28:33;;;;;;;;;;;11.20;99.90;;;;;;5055018;28;20001;-74
2022/12/31 01:31:02;;;;;;;;;;;11.20;99.90;;;;;;5073619;28;19912;-74
2022/12/31 01:33:27;;;;;;;;;;;11.20;99.90;;;;;;5072993;28;19912;-73
2022/12/31 01:35:53;;;;;;;;;;;11.20;99.90;;;;;;5073193;28;20485;-74
2022/12/31 01:38:19;;;;;;;;;;;11.20;99.90;;;;;;5072810;28;19951;-74
2022/12/31 01:40:46;;;;;;;;;;;11.20;99.90;;;;;;5072912;28;19916;-74
2022/12/31 01:43:18;;;;;;;;;;;11.30;99.90;;;;;;5072132;28;20282;-74
2022/12/31 01:45:49;;;;;;;;;;;11.20;99.90;;;;;;5072361;28;19916;-74
2022/12/31 01:48:18;;;;;;;;;;;11.10;99.90;;;;;;5072045;28;19920;-73
2022/12/31 01:50:45;;;;;;;;;;;11.00;99.90;;;;;;5071010;28;19916;-73
2022/12/31 01:53:11;;;;;;;;;;;11.00;99.90;;;;;;5072047;28;19939;-74
2022/12/31 01:55:38;;;;;;;;;;;11.40;99.90;;;;;;5072585;28;19921;-70
2022/12/31 01:58:09;;;;;;;;;;;11.10;99.90;;;;;;5072191;28;20287;-67
2022/12/31 02:00:35;;;;;;;;;;;11.10;99.90;;;;;;5071757;28;19959;-73
2022/12/31 02:03:01;;;;;;;;;;;11.20;99.90;;;;;;5072463;28;20415;-73
2022/12/31 02:05:36;;;;;;;;;;;11.00;99.90;;;;;;5072623;28;19918;-71
2022/12/31 02:08:02;;;;;;;;;;;11.00;99.90;;;;;;5071979;28;19912;-72
2022/12/31 02:10:28;;;;;;;;;;;11.10;99.90;;;;;;5071802;28;19943;-73
2022/12/31 02:12:54;;;;;;;;;;;11.10;99.90;;;;;;5072488;28;19912;-63
2022/12/31 02:15:22;;;;;;;;;;;11.10;99.90;;;;;;5071946;28;19964;-73
2022/12/31 02:17:55;;;;;;;;;;;11.10;99.90;;;;;;5072515;28;19961;-72
2022/12/31 02:20:30;;;;;;;;;;;11.10;99.90;;;;;;5069639;28;19920;-69
2022/12/31 02:23:09;;;;;;;;;;;11.00;99.90;;;;;;5051825;28;19913;-72
2022/12/31 02:25:44;;;;;;;;;;;10.90;99.90;;;;;;5072632;28;19913;-74
2022/12/31 02:28:12;;;;;;;;;;;11.00;99.90;;;;;;5072019;28;19919;-73
2022/12/31 02:30:39;;;;;;;;;;;11.00;99.90;;;;;;5071670;28;19919;-73
2022/12/31 02:33:27;;;;;;;;;;;10.80;99.90;;;;;;5071395;28;19999;-73
2022/12/31 02:35:55;;;;;;;;;;;10.80;99.90;;;;;;5071069;28;19938;-74
2022/12/31 02:38:32;;;;;;;;;;;10.90;99.90;;;;;;5072319;28;19912;-74
2022/12/31 02:40:58;;;;;;;;;;;10.90;99.90;;;;;;5071625;28;19958;-73
2022/12/31 02:43:24;;;;;;;;;;;10.90;99.90;;;;;;5071511;28;19943;-69
2022/12/31 02:45:56;;;;;;;;;;;10.80;99.90;;;;;;5071883;28;19908;-73
2022/12/31 02:48:27;;;;;;;;;;;10.90;99.90;;;;;;5072229;28;19995;-73
2022/12/31 02:51:10;;;;;;;;;;;11.00;99.90;;;;;;5072260;28;19987;-74
2022/12/31 02:53:51;;;;;;;;;;;10.70;99.90;;;;;;5071519;28;19913;-73
2022/12/31 02:56:29;;;;;;;;;;;10.60;99.90;;;;;;5071521;28;20023;-73
2022/12/31 03:04:32;;;;;;;;;;;10.20;99.90;;;;;;5057161;28;20271;-74
2022/12/31 03:07:01;;;;;;;;;;;10.10;99.90;;;;;;5071523;28;20006;-73
2022/12/31 03:09:26;;;;;;;;;;;10.10;99.90;;;;;;5071736;28;19916;-73
2022/12/31 03:14:36;;;;;;;;;;;10.60;99.90;;;;;;5071454;28;20024;-64
2022/12/31 03:17:02;;;;;;;;;;;10.40;99.90;;;;;;5053204;28;19952;-73
2022/12/31 03:22:27;;;;;;;;;;;10.30;99.90;;;;;;5071849;28;19939;-72
2022/12/31 03:27:48;;;;;;;;;;;;;;;;;;5075010;28;19919;-73
2022/12/31 03:30:15;;;;;;;;;;;9.90;99.90;;;;;;5073318;28;19916;-71
2022/12/31 03:32:41;;;;;;;;;;;9.80;99.90;;;;;;5074578;28;20450;-73
2022/12/31 03:35:07;;;;;;;;;;;9.80;99.90;;;;;;5076851;28;19925;-62
2022/12/31 03:37:32;;;;;;;;;;;9.80;99.90;;;;;;5076818;28;20249;-73
2022/12/31 03:39:58;;;;;;;;;;;10.00;99.90;;;;;;5075194;28;19958;-68
2022/12/31 03:42:23;;;;;;;;;;;9.90;99.90;;;;;;5074687;28;20372;-68
2022/12/31 03:44:49;;;;;;;;;;;10.10;99.90;;;;;;5074946;28;20011;-73
2022/12/31 03:47:15;;;;;;;;;;;10.00;99.90;;;;;;5074773;28;19912;-73
2022/12/31 03:49:40;;;;;;;;;;;10.00;99.90;;;;;;5075051;28;20360;-73
2022/12/31 03:52:07;;;;;;;;;;;10.10;99.90;;;;;;5074449;28;19917;-72
2022/12/31 03:54:33;;;;;;;;;;;;;;;;;;5058028;28;19928;-74
2022/12/31 03:56:58;;;;;;;;;;;11.50;99.90;;;;;;5075160;28;20275;-74
2022/12/31 03:59:24;;;;;;;;;;;10.40;99.90;;;;;;5074388;28;20359;-66
2022/12/31 04:01:50;;;;;;;;;;;10.30;99.90;;;;;;5056485;28;19912;-73
2022/12/31 04:04:15;;;;;;;;;;;10.30;99.90;;;;;;5074513;28;19917;-74
2022/12/31 04:06:41;;;;;;;;;;;10.30;99.90;;;;;;5056608;28;19916;-74
2022/12/31 04:09:06;;;;;;;;;;;10.30;99.90;;;;;;5074304;28;19913;-70
2022/12/31 04:11:32;;;;;;;;;;;10.20;99.90;;;;;;5073599;28;19959;-74
2022/12/31 04:13:58;;;;;;;;;;;10.30;99.90;;;;;;5074174;28;19920;-74
2022/12/31 04:16:23;;;;;;;;;;;10.20;99.90;;;;;;5074401;28;19920;-74
2022/12/31 04:18:49;;;;;;;;;;;10.20;99.90;;;;;;5074397;28;20351;-74
2022/12/31 04:21:15;;;;;;;;;;;10.20;99.90;;;;;;5073835;28;19948;-74
2022/12/31 04:23:40;;;;;;;;;;;10.20;99.90;;;;;;5073972;28;19916;-74
2022/12/31 04:26:06;;;;;;;;;;;10.20;99.90;;;;;;5073703;28;20359;-73
2022/12/31 04:28:31;;;;;;;;;;;10.10;99.90;;;;;;5074348;28;19930;-73
2022/12/31 04:30:57;;;;;;;;;;;10.10;99.90;;;;;;5073394;28;19959;-74
2022/12/31 04:33:22;;;;;;;;;;;10.00;99.90;;;;;;5074434;28;19913;-73
2022/12/31 04:35:48;;;;;;;;;;;9.90;99.90;;;;;;5055904;28;19920;-73
2022/12/31 04:38:13;;;;;;;;;;;9.90;99.90;;;;;;5073898;28;20011;-74
2022/12/31 04:41:15;;;;;;;;;;;9.80;99.90;;;;;;5074869;28;19913;-73
2022/12/31 04:43:25;;;;;;;;;;;9.70;99.90;;;;;;5073266;28;19912;-67
2022/12/31 04:45:50;;;;;;;;;;;9.70;99.90;;;;;;5074069;28;20459;-74
2022/12/31 04:48:16;;;;;;;;;;;9.70;99.90;;;;;;5073672;28;19966;-73
2022/12/31 04:50:41;;;;;;;;;;;9.80;99.90;;;;;;5073457;28;19944;-73
2022/12/31 04:53:07;;;;;;;;;;;9.80;99.90;;;;;;5062594;28;19961;-73
2022/12/31 04:55:32;;;;;;;;;;;9.70;99.90;;;;;;5073565;28;19921;-73
2022/12/31 04:57:58;;;;;;;;;;;9.70;99.90;;;;;;5073515;28;20374;-73
2022/12/31 05:00:24;;;;;;;;;;;9.80;99.90;;;;;;5073334;28;19912;-63
2022/12/31 05:02:49;;;;;;;;;;;10.00;99.90;;;;;;5073811;28;19919;-73
2022/12/31 05:05:15;;;;;;;;;;;10.00;99.90;;;;;;5075100;28;19958;-73
2022/12/31 05:07:40;;;;;;;;;;;9.80;99.90;;;;;;5057153;28;19913;-73
2022/12/31 05:10:06;;;;;;;;;;;9.70;99.90;;;;;;5073371;28;19917;-73
2022/12/31 05:12:32;;;;;;;;;;;9.60;99.90;;;;;;5072893;28;19912;-73
2022/12/31 05:14:57;;;;;;;;;;;9.70;99.90;;;;;;5074651;28;19920;-73
2022/12/31 05:17:23;;;;;;;;;;;9.70;99.90;;;;;;5074708;28;20007;-72
2022/12/31 05:19:48;;;;;;;;;;;9.70;99.90;;;;;;5072765;28;19942;-73
2022/12/31 05:22:29;;;;;;;;;;;9.70;99.90;;;;;;5074223;28;19938;-73
2022/12/31 05:24:57;;;;;;;;;;;9.50;99.90;;;;;;5075013;28;19918;-73
2022/12/31 05:27:23;;;;;;;;;;;9.60;99.90;;;;;;5074479;28;19920;-73
2022/12/31 05:29:48;;;;;;;;;;;9.70;99.90;;;;;;5072454;28;20360;-73
2022/12/31 05:32:14;;;;;;;;;;;9.70;99.90;;;;;;5072628;28;19924;-73
2022/12/31 05:34:39;;;;;;;;;;;9.70;99.90;;;;;;5073909;28;19973;-73
2022/12/31 05:37:05;;;;;;;;;;;9.70;99.90;;;;;;5074715;28;19975;-73
2022/12/31 05:39:30;;;;;;;;;;;9.80;99.90;;;;;;5072446;28;20006;-73
2022/12/31 05:41:56;;;;;;;;;;;9.80;99.90;;;;;;5069777;28;19923;-68
2022/12/31 05:44:21;;;;;;;;;;;9.60;99.90;;;;;;5072436;28;20278;-71
2022/12/31 05:46:47;;;;;;;;;;;9.50;99.90;;;;;;5071968;28;19912;-71
2022/12/31 05:49:13;;;;;;;;;;;9.50;99.90;;;;;;5072303;28;19912;-71
2022/12/31 05:51:38;;;;;;;;;;;9.60;99.90;;;;;;5054812;28;19920;-71
2022/12/31 05:54:04;;;;;;;;;;;9.70;99.90;;;;;;5072252;28;19995;-74
2022/12/31 05:56:29;;;;;;;;;;;9.70;99.90;;;;;;5072393;28;19928;-73
2022/12/31 05:58:55;;;;;;;;;;;9.60;99.90;;;;;;5061301;28;20407;-63
2022/12/31 06:01:21;;;;;;;;;;;9.70;99.90;;;;;;5073353;28;20011;-74
2022/12/31 06:03:46;;;;;;;;;;;9.70;99.90;;;;;;5072423;28;19912;-66
2022/12/31 06:06:12;;;;;;;;;;;9.70;99.90;;;;;;5073216;28;19919;-69
2022/12/31 06:08:37;;;;;;;;;;;9.70;99.90;;;;;;5074157;28;20042;-73
2022/12/31 06:11:03;;;;;;;;;;;9.80;99.90;;;;;;5059199;28;19916;-73
2022/12/31 06:13:29;;;;;;;;;;;9.70;99.90;;;;;;5071880;28;19912;-73
2022/12/31 06:15:54;;;;;;;;;;;9.80;99.90;;;;;;5071685;28;20299;-71
2022/12/31 06:18:20;;;;;;;;;;;9.80;99.90;;;;;;5073774;28;19917;-73
2022/12/31 06:20:45;;;;;;;;;;;9.60;99.90;;;;;;5073897;28;19942;-72
2022/12/31 06:23:11;;;;;;;;;;;9.40;99.90;;;;;;5070174;28;19912;-70
2022/12/31 06:25:37;;;;;;;;;;;9.30;99.90;;;;;;5040454;28;20419;-71
2022/12/31 06:28:03;;;;;;;;;;;9.40;99.90;;;;;;5069189;28;19919;-72
2022/12/31 06:30:29;;;;;;;;;;;9.40;99.90;;;;;;5072770;28;20007;-72
2022/12/31 06:32:55;;;;;;;;;;;9.50;99.90;;;;;;5071569;28;19994;-62
2022/12/31 06:35:20;;;;;;;;;;;9.60;99.90;;;;;;5072193;28;20058;-64
2022/12/31 06:37:46;;;;;;;;;;;9.70;99.90;;;;;;5071180;28;19912;-71
2022/12/31 06:40:12;;;;;;;;;;;9.70;99.90;;;;;;5071820;28;19913;-62
2022/12/31 06:42:41;;;;;;;;;;;9.90;99.90;;;;;;5071480;28;19912;-63
2022/12/31 06:45:06;;;;;;;;;;;9.90;99.90;;;;;;5072604;28;20310;-62
2022/12/31 06:47:32;;;;;;;;;;;10.00;99.90;;;;;;5073527;28;19958;-68
2022/12/31 06:49:58;;;;;;;;;;;10.00;99.90;;;;;;5073591;28;19913;-66
2022/12/31 06:52:24;;;;;;;;;;;10.10;99.90;;;;;;5073038;28;20000;-63
2022/12/31 06:54:50;;;;;;;;;;;10.00;99.90;;;;;;5071799;28;19920;-62
2022/12/31 06:57:16;;;;;;;;;;;9.90;99.90;;;;;;5072700;28;20286;-63
2022/12/31 06:59:42;;;;;;;;;;;9.80;99.90;;;;;;5075633;28;20007;-63
2022/12/31 07:02:15;;;;;;;;;;;9.70;99.90;;;;;;5075105;28;19947;-70
2022/12/31 07:04:45;;;;;;;;;;;9.70;99.90;;;;;;5075089;28;19913;-62
2022/12/31 07:07:25;;;;;;;;;;;9.90;99.90;;;;;;5055184;28;19912;-62
2022/12/31 07:10:00;;;;;;;;;;;9.90;99.90;;;;;;5058023;28;20469;-73
2022/12/31 07:12:29;;;;;;;;;;;9.70;99.90;;;;;;5075106;28;19963;-70
2022/12/31 07:15:05;;;;;;;;;;;9.50;99.90;;;;;;5076034;28;19920;-62
2022/12/31 07:17:42;;;;;;;;;;;9.10;99.90;;;;;;5074978;28;19919;-64
2022/12/31 07:20:12;;;;;;;;;;;9.10;99.90;;;;;;5075563;28;19919;-71
2022/12/31 07:22:38;;;;;;;;;;;9.10;99.90;;;;;;5062505;28;19920;-65
2022/12/31 07:25:08;;;;;;;;;;;9.20;99.90;;;;;;5074212;28;19916;-62
2022/12/31 07:27:42;;;;;;;;;;;9.50;99.90;;;;;;5075083;28;20249;-64
2022/12/31 07:30:13;;;;;;;;;;;9.60;99.90;;;;;;5074501;28;19912;-63
2022/12/31 07:32:59;;;;;;;;;;;9.70;99.90;;;;;;5074789;28;20383;-62
2022/12/31 07:35:36;;;;;;;;;;;9.90;99.90;;;;;;5074404;28;20352;-66
2022/12/31 07:38:24;;;;;;;;;;;10.20;99.90;;;;;;5074595;28;20390;-63
2022/12/31 07:40:58;;;;;;;;;;;10.40;99.90;;;;;;5074545;28;20332;-63
2022/12/31 07:43:24;;;;;;;;;;;10.60;99.90;;;;;;5074399;28;19916;-69
2022/12/31 07:45:54;;;;;;;;;;;10.80;99.90;;;;;;5075316;28;20271;-62
2022/12/31 07:48:22;;;;;;;;;;;10.80;99.90;;;;;;5074554;28;19913;-65
2022/12/31 07:50:49;;;;;;;;;;;10.80;99.90;;;;;;5074228;28;20001;-63
2022/12/31 07:53:14;;;;;;;;;;;10.60;99.90;;;;;;5073705;28;19966;-72
2022/12/31 07:55:41;;;;;;;;;;;10.50;99.90;;;;;;5073711;28;20001;-63
2022/12/31 07:58:07;;;;;;;;;;;;;;;;;;5070308;28;20263;-73
2022/12/31 08:00:33;;;;;;;;;;;10.20;99.90;;;;;;5074564;28;19912;-62
2022/12/31 08:03:14;;;;;;;;;;;10.10;99.90;;;;;;5074322;28;19928;-63
2022/12/31 08:05:46;;;;;;;;;;;10.10;99.90;;;;;;5074506;28;20252;-71
2022/12/31 08:08:27;;;;;;;;;;;10.10;99.90;;;;;;5073496;28;19913;-62
2022/12/31 08:11:06;;;;;;;;;;;10.10;99.90;;;;;;5074929;28;20253;-71
2022/12/31 08:13:32;;;;;;;;;;;10.00;99.90;;;;;;5074404;28;19912;-70
2022/12/31 08:15:58;;;;;;;;;;;10.00;99.90;;;;;;5075506;28;19924;-72
2022/12/31 08:18:24;;;;;;;;;;;10.00;99.90;;;;;;5075753;28;19936;-66
2022/12/31 08:20:58;;;;;;;;;;;9.90;99.90;;;;;;5074559;28;20316;-72
2022/12/31 08:23:31;;;;;;;;;;;9.90;99.90;;;;;;5054232;28;20249;-62
2022/12/31 08:26:10;;;;;;;;;;;10.00;99.90;;;;;;5061515;28;19916;-73
2022/12/31 08:28:41;;;;;;;;;;;10.00;99.90;;;;;;5074019;28;19919;-74
2022/12/31 08:31:18;;;;;;;;;;;10.30;99.90;;;;;;5076063;28;20007;-74
2022/12/31 08:33:56;;;;;;;;;;;10.50;99.90;;;;;;5074793;28;20310;-73
2022/12/31 08:36:30;;;;;;;;;;;10.50;99.90;;;;;;5075583;28;20275;-73
2022/12/31 08:39:02;;;;;;;;;;;10.60;99.90;;;;;;5076226;28;19962;-72
2022/12/31 08:41:28;;;;;;;;;;;10.70;99.90;;;;;;5075962;28;19912;-73
2022/12/31 08:44:09;;;;;;;;;;;10.90;99.90;;;;;;5075561;28;19958;-73
2022/12/31 08:46:37;;;;;;;;;;;11.00;99.90;;;;;;5075889;28;19990;-73
2022/12/31 08:49:03;;;;;;;;;;;11.00;99.90;;;;;;5075697;28;19919;-71
2022/12/31 08:51:29;;;;;;;;;;;11.10;99.90;;;;;;5075007;28;19913;-73
2022/12/31 08:53:54;;;;;;;;;;;11.10;99.90;;;;;;5075709;28;20004;-73
2022/12/31 08:56:27;;;;;;;;;;;11.10;99.90;;;;;;5057497;28;19947;-74
2022/12/31 08:59:11;;;;;;;;;;;11.10;99.90;;;;;;5074818;28;19922;-65
2022/12/31 09:01:45;;;;;;;;;;;11.10;99.90;;;;;;5074734;28;19920;-73
2022/12/31 09:04:18;;;;;;;;;;;11.20;99.90;;;;;;5075337;28;19912;-73
2022/12/31 09:06:50;;;;;;;;;;;11.20;99.90;;;;;;5073334;28;19913;-72
2022/12/31 09:09:32;;;;;;;;;;;11.20;99.90;;;;;;5071322;28;19916;-73
2022/12/31 09:12:07;;;;;;;;;;;11.20;99.90;;;;;;5071723;28;19919;-73
2022/12/31 09:14:40;;;;;;;;;;;11.10;99.90;;;;;;5065386;28;19923;-73
2022/12/31 09:17:17;;;;;;;;;;;11.20;99.90;;;;;;5069794;28;19994;-73
2022/12/31 09:19:42;;;;;;;;;;;11.10;99.90;;;;;;5053213;28;19913;-73
2022/12/31 09:22:09;;;;;;;;;;;11.20;99.90;;;;;;5071289;28;19920;-74
2022/12/31 09:24:35;;;;;;;;;;;11.20;99.90;;;;;;5071752;28;19912;-73
2022/12/31 09:27:05;;;;;;;;;;;11.10;99.90;;;;;;5072294;28;19913;-73
2022/12/31 09:29:40;;;;;;;;;;;11.20;99.90;;;;;;5072574;28;19999;-74
2022/12/31 09:32:32;;;;;;;;;;;11.20;99.90;;;;;;5063146;28;19917;-74
2022/12/31 09:35:10;;;;;;;;;;;11.20;99.90;;;;;;5029675;28;19928;-73
2022/12/31 09:37:47;;;;;;;;;;;11.30;99.90;;;;;;5052384;28;19917;-74
2022/12/31 09:40:31;;;;;;;;;;;11.30;99.90;;;;;;5062786;28;19912;-73
2022/12/31 09:43:15;;;;;;;;;;;11.50;99.90;;;;;;5071143;28;19912;-74
2022/12/31 09:46:00;;;;;;;;;;;11.60;99.90;;;;;;5071804;28;19938;-74
2022/12/31 09:48:26;;;;;;;;;;;;;;;;;;5061087;28;20433;-74
2022/12/31 09:50:57;;;;;;;;;;;11.60;99.90;;;;;;5072674;28;20348;-73
2022/12/31 09:53:43;;;;;;;;;;;11.80;99.90;;;;;;5071956;28;19919;-74
2022/12/31 09:56:25;;;;;;;;;;;11.90;99.90;;;;;;5069110;28;20367;-73
2022/12/31 09:59:11;;;;;;;;;;;12.00;99.90;;;;;;5071173;28;20275;-72
2022/12/31 10:01:37;;;;;;;;;;;12.10;99.90;;;;;;5071910;28;20360;-74
2022/12/31 10:04:18;;;;;;;;;;;12.10;99.90;;;;;;5070120;28;19913;-74
2022/12/31 10:06:43;;;;;;;;;;;12.20;99.90;;;;;;5045676;28;20370;-75
2022/12/31 10:09:29;;;;;;;;;;;12.30;99.90;;;;;;5065876;28;19912;-75
2022/12/31 10:11:54;;;;;;;;;;;12.40;99.90;;;;;;5047922;28;20003;-72
2022/12/31 10:14:23;;;;;;;;;;;12.50;99.90;;;;;;5071624;28;20363;-73
2022/12/31 10:17:01;;;;;;;;;;;12.60;99.90;;;;;;5071041;28;20375;-75
2022/12/31 10:19:45;;;;;;;;;;;12.60;99.90;;;;;;5068608;28;19921;-73
2022/12/31 10:22:29;;;;;;;;;;;12.70;99.90;;;;;;5063402;28;19920;-73
2022/12/31 10:25:18;;;;;;;;;;;12.70;99.90;;;;;;5070149;28;19919;-72
2022/12/31 10:27:50;;;;;;;;;;;12.70;99.90;;;;;;5068454;28;19999;-73
2022/12/31 10:30:17;;;;;;;;;;;12.70;99.90;;;;;;5070374;28;19913;-73
2022/12/31 10:32:50;;;;;;;;;;;12.90;99.90;;;;;;5075465;28;20488;-71
2022/12/31 10:35:27;;;;;;;;;;;12.70;99.90;;;;;;5074169;28;19920;-71
2022/12/31 10:38:02;;;;;;;;;;;12.80;99.90;;;;;;5075467;28;19916;-72
2022/12/31 10:40:46;;;;;;;;;;;12.90;99.90;;;;;;5076460;28;19920;-73
2022/12/31 10:43:30;;;;;;;;;;;13.00;99.90;;;;;;5075443;28;19913;-71
2022/12/31 10:46:23;;;;;;;;;;;13.00;99.90;;;;;;5070876;28;19916;-73
2022/12/31 10:49:08;;;;;;;;;;;13.20;99.90;;;;;;5056149;28;20450;-72
2022/12/31 10:51:53;;;;;;;;;;;13.30;99.90;;;;;;5075170;28;19912;-73
2022/12/31 10:54:33;;;;;;;;;;;13.30;99.90;;;;;;5074738;28;20003;-72
2022/12/31 10:57:17;;;;;;;;;;;13.30;99.90;;;;;;5075194;28;19920;-72
2022/12/31 11:00:02;;;;;;;;;;;13.40;99.90;;;;;;5074350;28;20730;-73
2022/12/31 11:02:34;;;;;;;;;;;13.40;99.90;;;;;;5070674;28;19920;-73
2022/12/31 11:05:18;;;;;;;;;;;13.50;99.90;;;;;;5071091;28;19912;-73
2022/12/31 11:07:59;;;;;;;;;;;13.50;99.90;;;;;;5073892;28;19984;-73
2022/12/31 11:10:29;;;;;;;;;;;13.60;99.90;;;;;;5073132;28;19916;-71
2022/12/31 11:13:14;;;;;;;;;;;13.70;99.90;;;;;;5058507;28;19956;-72
2022/12/31 11:15:44;;;;;;;;;;;13.90;99.90;;;;;;5073156;28;19928;-71
2022/12/31 11:18:22;;;;;;;;;;;13.90;99.90;;;;;;5074012;28;19912;-70
2022/12/31 11:20:55;;;;;;;;;;;14.00;99.90;;;;;;5072154;28;19916;-71
2022/12/31 11:23:51;;;;;;;;;;;14.20;99.90;;;;;;5073379;28;20349;-71
2022/12/31 11:26:36;;;;;;;;;;;14.40;99.90;;;;;;5057189;28;19913;-72
2022/12/31 11:29:04;;;;;;;;;;;14.40;99.90;;;;;;5070646;28;20003;-72
2022/12/31 11:32:01;;;;;;;;;;;14.40;99.90;;;;;;5072904;28;19912;-69
2022/12/31 11:34:33;;;;;;;;;;;14.50;99.90;;;;;;5001497;28;19917;-70
2022/12/31 11:37:02;;;;;;;;;;;14.60;99.90;;;;;;5074299;28;19916;-72
2022/12/31 11:39:40;;;;;;;;;;;14.60;99.90;;;;;;5056452;28;19913;-66
2022/12/31 11:42:15;;;;;;;;;;;14.60;99.90;;;;;;5056136;28;20106;-69
2022/12/31 11:44:49;;;;;;;;;;;14.70;99.90;;;;;;5074030;28;19919;-71
2022/12/31 11:47:33;;;;;;;;;;;14.70;99.90;;;;;;5073809;28;20359;-72
2022/12/31 11:50:10;;;;;;;;;;;14.60;99.90;;;;;;5071199;28;20473;-72
2022/12/31 11:52:50;;;;;;;;;;;14.80;99.90;;;;;;5074536;28;19920;-72
2022/12/31 11:55:37;;;;;;;;;;;14.90;99.90;;;;;;5073879;28;19925;-70
2022/12/31 11:58:29;;;;;;;;;;;14.90;99.90;;;;;;5074338;28;19958;-73
2022/12/31 12:00:59;;;;;;;;;;;14.90;99.90;;;;;;5070516;28;20017;-71
2022/12/31 12:03:26;;;;;;;;;;;14.90;99.90;;;;;;5073321;28;20396;-70
2022/12/31 12:05:51;;;;;;;;;;;14.90;99.90;;;;;;5074073;28;19958;-70
2022/12/31 12:08:23;;;;;;;;;;;15.00;99.90;;;;;;5073821;28;19954;-71
2022/12/31 12:10:57;;;;;;;;;;;15.10;99.90;;;;;;5074392;28;20276;-71
2022/12/31 12:13:25;;;;;;;;;;;15.10;99.90;;;;;;5073906;28;19919;-68
2022/12/31 12:15:53;;;;;;;;;;;15.40;99.90;;;;;;5037478;28;19929;-66
2022/12/31 12:18:29;;;;;;;;;;;15.40;99.90;;;;;;5071630;28;19912;-64
2022/12/31 12:21:06;;;;;;;;;;;15.70;99.90;;;;;;5072248;28;20003;-67
2022/12/31 12:23:33;;;;;;;;;;;15.90;99.90;;;;;;5056500;28;19912;-67
2022/12/31 12:25:59;;;;;;;;;;;16.20;99.90;;;;;;5073401;28;19944;-69
2022/12/31 12:28:29;;;;;;;;;;;16.20;99.90;;;;;;5073822;28;19966;-69
2022/12/31 12:31:02;;;;;;;;;;;16.30;99.90;;;;;;5067980;28;19916;-68
2022/12/31 12:33:29;;;;;;;;;;;16.30;99.90;;;;;;5072677;28;19919;-64
2022/12/31 12:36:06;;;;;;;;;;;16.30;99.90;;;;;;5062841;28;19928;-68
2022/12/31 12:38:36;;;;;;;;;;;16.40;99.90;;;;;;5075192;28;20008;-67
2022/12/31 12:41:03;;;;;;;;;;;16.50;99.90;;;;;;5081976;28;19944;-67
2022/12/31 12:43:31;;;;;;;;;;;16.60;99.90;;;;;;5092277;28;19912;-69
2022/12/31 12:45:59;;;;;;;;;;;16.60;99.90;;;;;;5074080;28;20356;-70
2022/12/31 12:48:30;;;;;;;;;;;16.50;99.90;;;;;;5070477;28;19919;-69
2022/12/31 12:50:56;;;;;;;;;;;16.40;99.90;;;;;;5072165;28;19912;-67
2022/12/31 12:53:27;;;;;;;;;;;16.20;99.90;;;;;;5072856;28;19958;-70
2022/12/31 12:55:59;;;;;;;;;;;16.20;99.90;;;;;;5071553;28;19920;-70
2022/12/31 12:58:33;;;;;;;;;;;16.20;99.90;;;;;;5073604;28;19932;-68
2022/12/31 13:01:22;;;;;;;;;;;16.30;99.90;;;;;;5072586;28;19912;-70
2022/12/31 13:04:03;;;;;;;;;;;16.20;99.90;;;;;;5072695;28;19959;-63
2022/12/31 13:06:39;;;;;;;;;;;16.20;99.90;;;;;;5062325;28;19946;-69
2022/12/31 13:09:15;;;;;;;;;;;16.20;99.90;;;;;;5073096;28;19912;-63
2022/12/31 13:12:04;;;;;;;;;;;16.10;99.90;;;;;;5073288;28;19913;-62
2022/12/31 13:14:56;;;;;;;;;;;16.10;99.90;;;;;;5072376;28;20008;-67
2022/12/31 13:17:28;;;;;;;;;;;16.10;99.90;;;;;;5041360;28;20303;-63
2022/12/31 13:20:00;;;;;;;;;;;16.10;99.90;;;;;;5074458;28;20389;-71
2022/12/31 13:22:31;;;;;;;;;;;16.10;99.90;;;;;;5054370;28;19924;-72
2022/12/31 13:25:18;;;;;;;;;;;16.10;99.90;;;;;;5064429;28;19919;-71
2022/12/31 13:27:45;;;;;;;;;;;16.20;99.90;;;;;;5072090;28;20265;-72
2022/12/31 13:30:34;;;;;;;;;;;16.20;99.90;;;;;;5069916;28;19913;-71
2022/12/31 13:33:15;;;;;;;;;;;16.20;99.90;;;;;;5063946;28;19919;-71
2022/12/31 13:35:54;;;;;;;;;;;16.10;99.90;;;;;;5057959;28;20505;-71
2022/12/31 13:38:28;;;;;;;;;;;16.10;99.90;;;;;;5061072;28;19913;-70
2022/12/31 13:40:56;;;;;;;;;;;16.10;99.90;;;;;;5051856;28;20339;-71
2022/12/31 13:43:31;;;;;;;;;;;16.10;99.90;;;;;;5069337;28;19912;-71
2022/12/31 13:46:02;;;;;;;;;;;16.10;99.90;;;;;;5072469;28;19956;-71
2022/12/31 13:48:35;;;;;;;;;;;16.10;99.90;;;;;;5071792;28;19912;-71
2022/12/31 13:51:05;;;;;;;;;;;16.00;99.90;;;;;;5072283;28;20253;-71
2022/12/31 13:53:34;;;;;;;;;;;16.00;99.90;;;;;;5072810;28;19974;-71
2022/12/31 13:56:02;;;;;;;;;;;15.90;99.90;;;;;;5054144;28;20325;-71
2022/12/31 13:58:30;;;;;;;;;;;15.90;99.90;;;;;;5072907;28;19947;-71
2022/12/31 14:01:08;;;;;;;;;;;15.80;99.90;;;;;;5071421;28;19919;-71
2022/12/31 14:03:42;;;;;;;;;;;15.90;99.90;;;;;;5058604;28;20054;-71
2022/12/31 14:06:17;;;;;;;;;;;15.90;99.90;;;;;;5054071;28;20344;-71
2022/12/31 14:08:44;;;;;;;;;;;16.00;99.90;;;;;;5053299;28;19920;-71
2022/12/31 14:11:42;;;;;;;;;;;16.00;99.90;;;;;;5071071;28;19912;-71
2022/12/31 14:14:30;;;;;;;;;;;16.20;99.90;;;;;;5071842;28;19913;-71
2022/12/31 14:17:04;;;;;;;;;;;16.20;99.90;;;;;;5071580;28;20194;-71
2022/12/31 14:19:33;;;;;;;;;;;16.20;99.90;;;;;;5073089;28;19919;-71
2022/12/31 14:22:12;;;;;;;;;;;16.00;99.90;;;;;;5071944;28;19913;-71
2022/12/31 14:24:45;;;;;;;;;;;15.90;99.90;;;;;;5072259;28;20348;-71
2022/12/31 14:27:34;;;;;;;;;;;15.90;99.90;;;;;;5054312;28;19919;-71
2022/12/31 14:30:29;;;;;;;;;;;15.80;99.90;;;;;;5063761;28;19949;-71
2022/12/31 14:33:04;;;;;;;;;;;15.80;99.90;;;;;;5069379;28;20369;-71
2022/12/31 14:35:39;;;;;;;;;;;15.80;99.90;;;;;;5071529;28;19966;-71
2022/12/31 14:38:18;;;;;;;;;;;15.80;99.90;;;;;;5071963;28;20356;-71
2022/12/31 14:41:02;;;;;;;;;;;15.70;99.90;;;;;;5072305;28;20297;-71
2022/12/31 14:43:46;;;;;;;;;;;15.60;99.90;;;;;;5071973;28;19995;-71
2022/12/31 14:46:24;;;;;;;;;;;15.50;99.90;;;;;;5053856;28;19913;-71
2022/12/31 14:48:59;;;;;;;;;;;15.40;99.90;;;;;;5054038;28;20038;-71
2022/12/31 14:51:28;;;;;;;;;;;15.40;99.90;;;;;;5053552;28;19919;-71
2022/12/31 14:53:55;;;;;;;;;;;15.30;99.90;;;;;;5071155;28;19916;-71
2022/12/31 14:56:36;;;;;;;;;;;15.20;99.90;;;;;;5033264;28;19928;-71
2022/12/31 14:59:02;;;;;;;;;;;15.20;99.90;;;;;;5049821;28;19960;-71